Time;durP1;ratioP1;P1;durP2;ratioP2;P2;SDS_P1;SDS_P2;PMS_P1;PMS_P2;Temp;Humidity;BMP_temperature;BMP_pressure;BME280_temperature;BME280_humidity;BME280_pressure;Samples;Min_cycle;Max_cycle;Signal;HPM_P1;HPM_P2
2022/08/27 00:01:15;;;;;;;4.00;3.70;;;24.20;59.40;;;;;;5022126;28;20709;-77
2022/08/27 00:03:42;;;;;;;4.35;3.97;;;24.20;59.50;;;;;;5053873;28;20187;-77
2022/08/27 00:06:09;;;;;;;4.30;3.92;;;24.20;59.50;;;;;;5036250;28;20209;-77
2022/08/27 00:08:36;;;;;;;4.10;3.70;;;24.20;59.60;;;;;;5053266;28;20662;-77
2022/08/27 00:11:03;;;;;;;4.20;3.85;;;24.20;59.50;;;;;;5036597;28;20282;-77
2022/08/27 00:13:30;;;;;;;4.53;3.97;;;24.20;59.50;;;;;;5056537;28;20187;-77
2022/08/27 00:15:57;;;;;;;4.93;4.30;;;24.20;59.50;;;;;;5038158;28;20207;-77
2022/08/27 00:18:26;;;;;;;4.57;4.18;;;24.20;59.50;;;;;;5037207;28;20207;-77
2022/08/27 00:20:53;;;;;;;4.50;4.20;;;24.20;59.50;;;;;;5035954;28;20215;-77
2022/08/27 00:23:20;;;;;;;4.35;4.05;;;24.20;59.60;;;;;;5036299;28;20211;-77
2022/08/27 00:25:47;;;;;;;5.18;4.50;;;24.20;59.60;;;;;;5038251;28;20601;-77
2022/08/27 00:28:14;;;;;;;4.05;3.75;;;24.20;59.60;;;;;;5020527;28;20199;-76
2022/08/27 00:30:41;;;;;;;4.80;4.38;;;24.20;59.60;;;;;;5054150;28;20583;-77
2022/08/27 00:33:08;;;;;;;4.75;3.92;;;24.20;59.60;;;;;;5053716;28;20195;-77
2022/08/27 00:35:37;;;;;;;5.05;4.55;;;24.20;59.60;;;;;;5035870;28;20218;-77
2022/08/27 00:38:04;;;;;;;5.43;4.93;;;24.20;59.60;;;;;;5035684;28;20203;-77
2022/08/27 00:40:32;;;;;;;6.13;4.25;;;24.20;59.60;;;;;;5053423;28;20314;-77
2022/08/27 00:43:01;;;;;;;5.15;4.75;;;24.20;59.70;;;;;;5056345;28;20560;-77
2022/08/27 00:45:28;;;;;;;4.90;4.45;;;24.20;59.70;;;;;;5057618;28;20193;-77
2022/08/27 00:47:56;;;;;;;5.90;5.30;;;24.20;59.70;;;;;;5040568;28;20231;-77
2022/08/27 00:50:28;;;;;;;5.93;5.43;;;24.20;59.80;;;;;;5055829;28;20250;-77
2022/08/27 00:52:59;;;;;;;6.15;4.63;;;24.20;59.80;;;;;;5056632;28;20202;-77
2022/08/27 00:55:30;;;;;;;5.32;4.88;;;24.20;59.80;;;;;;5056039;28;20222;-77
2022/08/27 00:58:00;;;;;;;5.82;5.10;;;24.20;59.80;;;;;;5056082;28;20286;-77
2022/08/27 01:00:28;;;;;;;5.75;5.25;;;24.20;59.80;;;;;;5055592;28;20219;-77
2022/08/27 01:02:55;;;;;;;6.25;5.65;;;24.20;59.70;;;;;;5057096;28;20192;-77
2022/08/27 01:05:24;;;;;;;5.90;5.40;;;24.20;59.80;;;;;;5039382;28;20617;-77
2022/08/27 01:07:53;;;;;;;5.88;5.38;;;24.20;59.90;;;;;;5039202;28;20227;-77
2022/08/27 01:10:22;;;;;;;5.50;5.00;;;24.20;59.80;;;;;;5039372;28;20211;-77
2022/08/27 01:12:51;;;;;;;5.70;5.20;;;24.20;59.90;;;;;;5039319;28;20282;-77
2022/08/27 01:15:18;;;;;;;5.43;4.93;;;24.10;59.70;;;;;;5023118;28;20215;-77
2022/08/27 01:17:45;;;;;;;5.80;5.30;;;24.10;59.60;;;;;;5039535;28;20203;-77
2022/08/27 01:20:15;;;;;;;5.97;5.47;;;24.20;59.80;;;;;;5038985;28;20285;-77
2022/08/27 01:22:46;;;;;;;6.28;5.68;;;24.10;59.80;;;;;;5039012;28;20207;-77
2022/08/27 01:25:16;;;;;;;5.85;5.35;;;24.10;59.80;;;;;;5038959;28;20188;-77
2022/08/27 01:27:43;;;;;;;5.47;4.97;;;24.20;59.90;;;;;;5039079;28;20231;-77
2022/08/27 01:30:12;;;;;;;6.05;5.40;;;24.20;59.90;;;;;;5038795;28;20596;-77
2022/08/27 01:32:39;;;;;;;7.05;6.22;;;24.20;59.90;;;;;;5038851;28;20195;-77
2022/08/27 01:35:08;;;;;;;6.03;5.25;;;24.20;60.00;;;;;;5039042;28;20219;-77
2022/08/27 01:37:35;;;;;;;5.95;5.45;;;24.10;59.90;;;;;;5039303;28;20222;-77
2022/08/27 01:40:07;;;;;;;6.25;5.65;;;24.10;59.90;;;;;;5038788;28;20215;-77
2022/08/27 01:42:36;;;;;;;6.28;5.68;;;24.10;60.00;;;;;;5024343;28;20195;-77
2022/08/27 01:45:05;;;;;;;6.35;5.85;;;24.10;60.00;;;;;;5040464;28;20237;-77
2022/08/27 01:47:33;;;;;;;6.38;5.53;;;24.10;60.00;;;;;;5056503;28;20192;-77
2022/08/27 01:50:00;;;;;;;6.38;5.72;;;24.10;60.00;;;;;;5038569;28;20223;-77
2022/08/27 01:52:27;;;;;;;6.28;5.70;;;24.10;60.00;;;;;;5054295;28;20265;-76
2022/08/27 01:54:54;;;;;;;6.15;5.65;;;24.10;60.10;;;;;;5051031;28;20223;-77
2022/08/27 01:57:22;;;;;;;6.50;5.90;;;24.10;60.00;;;;;;5038239;28;20290;-77
2022/08/27 01:59:50;;;;;;;6.93;6.28;;;24.10;60.00;;;;;;5038852;28;20211;-76
2022/08/27 02:02:17;;;;;;;6.95;6.25;;;24.10;60.00;;;;;;5021845;28;20249;-77
2022/08/27 02:04:44;;;;;;;6.72;6.22;;;24.10;60.10;;;;;;5055977;28;20195;-77
2022/08/27 02:07:12;;;;;;;7.40;6.65;;;24.10;60.20;;;;;;5056220;28;20199;-77
2022/08/27 02:09:39;;;;;;;6.78;6.13;;;24.10;60.20;;;;;;5038053;28;20211;-77
2022/08/27 02:12:06;;;;;;;7.15;6.53;;;24.10;60.40;;;;;;5037885;28;20321;-77
2022/08/27 02:14:33;;;;;;;6.60;6.03;;;24.10;60.20;;;;;;5021489;28;20265;-77
2022/08/27 02:17:02;;;;;;;6.95;6.25;;;24.10;60.20;;;;;;5037871;28;20207;-77
2022/08/27 02:19:29;;;;;;;7.15;6.47;;;24.10;60.30;;;;;;5054903;28;20207;-77
2022/08/27 02:21:59;;;;;;;6.93;6.32;;;24.10;60.20;;;;;;5046550;28;20231;-77
2022/08/27 02:24:27;;;;;;;6.95;6.45;;;24.10;60.30;;;;;;5037754;28;20234;-77
2022/08/27 02:26:55;;;;;;;8.20;7.50;;;24.10;60.30;;;;;;5038213;28;20199;-77
2022/08/27 02:29:22;;;;;;;8.10;7.38;;;24.10;60.40;;;;;;5037728;28;20290;-77
2022/08/27 02:31:49;;;;;;;7.07;6.47;;;24.10;60.40;;;;;;5055462;28;20219;-77
2022/08/27 02:34:18;;;;;;;7.95;7.15;;;24.10;60.40;;;;;;5037486;28;20199;-77
2022/08/27 02:36:45;;;;;;;7.50;6.88;;;24.00;60.40;;;;;;5037895;28;20234;-77
2022/08/27 02:39:12;;;;;;;7.72;7.03;;;24.10;60.50;;;;;;5037917;28;20203;-77
2022/08/27 02:41:39;;;;;;;7.95;7.25;;;24.10;60.50;;;;;;5055305;28;20216;-77
2022/08/27 02:44:06;;;;;;;7.57;6.93;;;24.10;60.40;;;;;;5037268;28;20199;-77
2022/08/27 02:46:33;;;;;;;7.22;6.63;;;24.10;60.50;;;;;;5021131;28;20277;-77
2022/08/27 02:49:00;;;;;;;7.93;7.22;;;24.10;60.40;;;;;;5037522;28;20195;-77
2022/08/27 02:51:29;;;;;;;7.82;7.05;;;24.10;60.40;;;;;;5055055;28;20250;-77
2022/08/27 02:53:56;;;;;;;8.45;7.70;;;24.10;60.50;;;;;;5055058;28;20188;-77
2022/08/27 02:56:23;;;;;;;8.25;7.45;;;24.00;60.30;;;;;;5037275;28;20215;-76
2022/08/27 02:58:50;;;;;;;8.05;7.32;;;24.00;60.40;;;;;;5037516;28;20207;-77
2022/08/27 03:01:17;;;;;;;7.32;6.75;;;24.00;60.30;;;;;;5055188;28;20207;-77
2022/08/27 03:03:44;;;;;;;7.65;6.95;;;24.10;60.50;;;;;;5036714;28;20209;-77
2022/08/27 03:06:11;;;;;;;9.63;7.72;;;24.00;60.40;;;;;;5037035;28;20196;-77
2022/08/27 03:08:40;;;;;;;7.53;6.93;;;24.10;60.60;;;;;;5036977;28;20210;-76
2022/08/27 03:11:07;;;;;;;7.25;6.65;;;24.10;60.90;;;;;;5037298;28;20214;-77
2022/08/27 03:13:36;;;;;;;8.10;7.40;;;24.10;61.30;;;;;;5037313;28;20205;-77
2022/08/27 03:16:03;;;;;;;7.30;6.70;;;24.10;61.40;;;;;;5039927;28;20297;-76
2022/08/27 03:18:31;;;;;;;7.63;6.88;;;24.10;61.50;;;;;;5039104;28;20214;-76
2022/08/27 03:20:58;;;;;;;8.15;7.35;;;24.10;61.60;;;;;;5021334;28;20212;-76
2022/08/27 03:23:27;;;;;;;7.57;6.97;;;24.20;61.40;;;;;;5036741;28;20199;-76
2022/08/27 03:25:57;;;;;;;8.55;7.68;;;24.20;61.30;;;;;;5036741;28;20191;-76
2022/08/27 03:28:24;;;;;;;8.52;7.72;;;24.30;61.90;;;;;;5036646;28;20203;-76
2022/08/27 03:30:53;;;;;;;6.85;6.35;;;24.40;60.90;;;;;;5020728;28;20242;-76
2022/08/27 03:33:21;;;;;;;6.95;6.35;;;24.50;60.70;;;;;;5036509;28;20210;-76
2022/08/27 03:35:48;;;;;;;7.15;6.40;;;24.50;60.40;;;;;;5036573;28;20239;-76
2022/08/27 03:38:15;;;;;;;7.55;6.85;;;24.60;60.40;;;;;;5036351;28;20749;-76
2022/08/27 03:40:42;;;;;;;7.47;6.53;;;24.60;60.20;;;;;;5036535;28;20218;-76
2022/08/27 03:43:11;;;;;;;7.43;6.72;;;24.60;60.80;;;;;;5036308;28;20274;-76
2022/08/27 03:45:38;;;;;;;7.28;6.68;;;24.70;60.10;;;;;;5036891;28;20195;-76
2022/08/27 03:48:05;;;;;;;8.52;7.47;;;24.70;60.00;;;;;;5036735;28;20210;-76
2022/08/27 03:50:33;;;;;;;7.57;6.97;;;24.70;59.90;;;;;;5036528;28;20587;-76
2022/08/27 03:53:00;;;;;;;7.45;6.85;;;24.70;59.80;;;;;;5036116;28;20740;-77
2022/08/27 03:55:27;;;;;;;7.50;6.80;;;24.80;59.70;;;;;;5032103;28;20212;-76
2022/08/27 03:57:54;;;;;;;7.60;7.00;;;24.80;59.80;;;;;;5032647;28;20216;-77
2022/08/27 04:00:23;;;;;;;7.90;7.28;;;24.80;59.70;;;;;;5016463;28;20265;-76
2022/08/27 04:02:50;;;;;;;7.53;6.93;;;24.80;59.60;;;;;;5033850;28;20566;-76
2022/08/27 04:05:18;;;;;;;7.60;6.90;;;24.90;59.70;;;;;;5033278;28;20192;-76
2022/08/27 04:07:45;;;;;;;7.88;7.18;;;24.80;59.60;;;;;;5016274;28;20192;-76
2022/08/27 04:10:13;;;;;;;6.82;6.28;;;24.90;59.70;;;;;;5032874;28;20266;-76
2022/08/27 04:12:40;;;;;;;7.22;6.63;;;24.80;59.60;;;;;;5033548;28;20204;-76
2022/08/27 04:15:08;;;;;;;6.85;6.35;;;24.90;60.30;;;;;;5016282;28;20356;-76
2022/08/27 04:17:36;;;;;;;7.68;6.97;;;24.90;59.70;;;;;;5016109;28;20199;-76
2022/08/27 04:20:03;;;;;;;7.20;6.63;;;24.90;59.70;;;;;;5016796;28;20227;-76
2022/08/27 04:22:30;;;;;;;7.65;7.05;;;24.90;59.60;;;;;;5016500;28;20698;-76
2022/08/27 04:24:58;;;;;;;7.80;7.05;;;24.80;59.60;;;;;;5032589;28;20551;-76
2022/08/27 04:27:25;;;;;;;7.18;6.57;;;24.90;59.70;;;;;;5032590;28;20200;-77
2022/08/27 04:29:54;;;;;;;7.60;6.93;;;24.90;59.70;;;;;;5015889;28;20658;-76
2022/08/27 04:32:22;;;;;;;7.78;7.07;;;24.90;59.70;;;;;;5032666;28;20269;-77
2022/08/27 04:34:53;;;;;;;8.10;7.32;;;24.90;59.70;;;;;;5015827;28;20200;-77
2022/08/27 04:37:20;;;;;;;7.97;7.28;;;24.80;59.60;;;;;;4999604;28;20199;-77
2022/08/27 04:39:47;;;;;;;8.50;7.68;;;24.80;59.60;;;;;;5015868;28;20690;-76
2022/08/27 04:42:14;;;;;;;7.53;6.82;;;24.80;59.70;;;;;;5032996;28;20204;-76
2022/08/27 04:44:41;;;;;;;7.82;7.13;;;24.90;59.70;;;;;;5016616;28;20223;-76
2022/08/27 04:47:08;;;;;;;7.82;7.13;;;24.80;59.80;;;;;;4999485;28;20206;-77
2022/08/27 04:49:35;;;;;;;10.65;9.65;;;24.80;59.80;;;;;;4999570;28;20200;-77
2022/08/27 04:52:03;;;;;;;9.35;8.10;;;24.70;59.90;;;;;;5015550;28;20212;-77
2022/08/27 04:54:31;;;;;;;8.68;7.95;;;24.80;60.00;;;;;;5015876;28;20208;-77
2022/08/27 04:56:58;;;;;;;8.52;7.72;;;24.70;60.00;;;;;;5032434;28;20208;-77
2022/08/27 04:59:25;;;;;;;8.95;8.15;;;24.70;60.00;;;;;;5015800;28;20204;-76
2022/08/27 05:01:53;;;;;;;9.55;8.63;;;24.70;60.10;;;;;;5015517;28;20773;-76
2022/08/27 05:04:21;;;;;;;9.25;8.45;;;24.70;60.20;;;;;;5000383;28;20596;-76
2022/08/27 05:06:49;;;;;;;8.38;7.57;;;24.60;60.20;;;;;;5015771;28;20246;-76
2022/08/27 05:09:17;;;;;;;7.97;7.38;;;24.60;60.30;;;;;;5033123;28;20606;-77
2022/08/27 05:11:45;;;;;;;8.52;7.50;;;24.60;60.50;;;;;;5031936;28;20224;-77
2022/08/27 05:14:13;;;;;;;8.15;7.45;;;24.60;60.50;;;;;;4999133;28;20196;-77
2022/08/27 05:16:40;;;;;;;9.05;8.25;;;24.50;60.50;;;;;;5015631;28;20227;-77
2022/08/27 05:19:08;;;;;;;8.45;7.75;;;24.50;60.70;;;;;;5031938;28;20199;-77
2022/08/27 05:21:37;;;;;;;8.93;7.82;;;24.50;60.70;;;;;;5015544;28;20290;-77
2022/08/27 05:24:05;;;;;;;9.13;8.30;;;24.50;60.80;;;;;;5015666;28;20204;-77
2022/08/27 05:26:35;;;;;;;8.20;7.40;;;24.50;60.70;;;;;;5032985;28;20231;-76
2022/08/27 05:29:02;;;;;;;8.48;7.82;;;24.50;60.80;;;;;;5018890;28;20211;-77
2022/08/27 05:31:29;;;;;;;8.73;8.02;;;24.50;60.80;;;;;;5035514;28;20310;-77
2022/08/27 05:33:57;;;;;;;8.43;7.72;;;24.50;60.80;;;;;;5018859;28;20196;-77
2022/08/27 05:36:25;;;;;;;10.30;9.40;;;24.50;60.90;;;;;;5019271;28;20220;-77
2022/08/27 05:38:52;;;;;;;8.88;8.18;;;24.50;60.80;;;;;;5035489;28;20200;-77
2022/08/27 05:41:23;;;;;;;9.35;8.55;;;24.50;61.60;;;;;;5035526;28;20215;-77
2022/08/27 05:43:53;;;;;;;9.13;8.35;;;24.50;61.50;;;;;;5019245;28;20215;-77
2022/08/27 05:46:22;;;;;;;9.68;8.82;;;24.40;60.60;;;;;;5036408;28;20185;-77
2022/08/27 05:48:49;;;;;;;8.63;7.93;;;24.50;60.80;;;;;;5018579;28;20207;-77
2022/08/27 05:51:20;;;;;;;8.93;8.00;;;24.50;60.70;;;;;;5018460;28;20224;-77
2022/08/27 05:53:47;;;;;;;10.52;9.63;;;24.50;60.50;;;;;;5034970;28;20200;-77
2022/08/27 05:56:15;;;;;;;10.30;9.40;;;24.50;60.70;;;;;;5018557;28;20235;-76
2022/08/27 06:01:41;;;;;;;8.85;8.10;;;24.50;60.70;;;;;;4978267;28;20217;-76
2022/08/27 06:04:09;;;;;;;10.13;9.32;;;24.50;60.70;;;;;;5022609;28;20277;-76
2022/08/27 06:06:37;;;;;;;10.63;9.73;;;24.50;60.70;;;;;;5018821;28;20231;-76
2022/08/27 06:09:04;;;;;;;11.57;10.57;;;24.50;60.70;;;;;;5018687;28;20191;-76
2022/08/27 06:11:31;;;;;;;11.25;10.15;;;24.50;60.80;;;;;;5035927;28;20216;-76
2022/08/27 06:13:59;;;;;;;9.77;8.98;;;24.50;60.90;;;;;;5034512;28;20199;-76
2022/08/27 06:16:26;;;;;;;11.30;10.23;;;24.50;60.90;;;;;;5017912;28;20226;-77
2022/08/27 06:18:56;;;;;;;10.70;9.80;;;24.60;60.90;;;;;;5035910;28;20195;-76
2022/08/27 06:21:23;;;;;;;11.95;10.85;;;24.60;60.60;;;;;;5034840;28;20223;-76
2022/08/27 06:23:50;;;;;;;11.40;10.40;;;24.70;60.50;;;;;;5018195;28;20196;-76
2022/08/27 06:26:18;;;;;;;10.73;9.82;;;24.70;60.50;;;;;;5018551;28;20219;-76
2022/08/27 06:28:45;;;;;;;11.00;10.00;;;24.70;60.30;;;;;;5017864;28;20210;-76
2022/08/27 06:31:13;;;;;;;11.75;10.68;;;24.80;60.20;;;;;;5017694;28;20722;-76
2022/08/27 06:33:40;;;;;;;11.40;10.40;;;24.80;60.10;;;;;;5034212;28;20196;-76
2022/08/27 06:36:10;;;;;;;12.02;10.98;;;24.80;60.00;;;;;;5034204;28;20222;-76
2022/08/27 06:38:37;;;;;;;12.63;11.52;;;24.90;60.10;;;;;;5033605;28;20196;-76
2022/08/27 06:41:05;;;;;;;12.20;11.10;;;24.90;60.00;;;;;;5017536;28;20220;-76
2022/08/27 06:43:32;;;;;;;11.45;10.35;;;24.90;59.90;;;;;;5035307;28;20199;-76
2022/08/27 06:46:02;;;;;;;12.35;11.25;;;24.90;59.80;;;;;;5034309;28;20286;-76
2022/08/27 06:48:29;;;;;;;11.32;10.43;;;24.90;59.80;;;;;;5017985;28;20200;-76
2022/08/27 06:50:56;;;;;;;12.32;10.80;;;25.00;59.70;;;;;;5033784;28;20254;-76
2022/08/27 06:53:24;;;;;;;12.75;11.60;;;25.00;59.70;;;;;;5017602;28;20200;-76
2022/08/27 06:55:51;;;;;;;11.70;10.60;;;25.00;59.70;;;;;;5017789;28;20315;-77
2022/08/27 06:58:19;;;;;;;12.00;10.90;;;25.00;59.60;;;;;;5017527;28;20234;-77
2022/08/27 07:00:45;;;;;;;12.27;11.18;;;25.00;59.60;;;;;;5017771;28;20219;-77
2022/08/27 07:03:12;;;;;;;11.57;10.57;;;25.10;59.60;;;;;;5017126;28;20204;-77
2022/08/27 07:05:39;;;;;;;12.18;10.98;;;25.00;59.60;;;;;;5017195;28;20238;-77
2022/08/27 07:08:07;;;;;;;11.77;10.68;;;25.00;59.60;;;;;;5033979;28;20207;-77
2022/08/27 07:10:36;;;;;;;11.82;10.63;;;25.00;59.60;;;;;;5017338;28;20226;-77
2022/08/27 07:13:03;;;;;;;11.65;10.55;;;25.00;59.60;;;;;;5017340;28;20195;-77
2022/08/27 07:15:30;;;;;;;12.15;11.05;;;25.10;59.60;;;;;;5017070;28;20196;-77
2022/08/27 07:17:58;;;;;;;11.35;10.35;;;25.00;59.60;;;;;;5034306;28;20655;-77
2022/08/27 07:20:25;;;;;;;12.52;11.32;;;25.10;59.60;;;;;;5017590;28;20223;-77
2022/08/27 07:22:53;;;;;;;11.60;10.55;;;25.00;59.70;;;;;;5035356;28;20615;-77
2022/08/27 07:25:20;;;;;;;11.75;10.68;;;25.00;59.60;;;;;;5016584;28;20193;-77
2022/08/27 07:27:48;;;;;;;13.25;12.07;;;25.00;59.60;;;;;;5016879;28;20250;-77
2022/08/27 07:30:16;;;;;;;13.00;11.38;;;25.00;59.70;;;;;;5033976;28;20211;-77
2022/08/27 07:32:43;;;;;;;12.45;11.25;;;25.10;59.80;;;;;;5017179;28;20200;-77
2022/08/27 07:35:10;;;;;;;12.23;11.23;;;25.00;59.70;;;;;;5016732;28;20222;-77
2022/08/27 07:37:37;;;;;;;11.43;10.35;;;25.00;59.80;;;;;;5017290;28;20261;-77
2022/08/27 07:40:05;;;;;;;12.68;11.52;;;25.00;59.80;;;;;;5016804;28;20215;-77
2022/08/27 07:45:18;;;;;;;11.23;10.13;;;25.00;59.90;;;;;;5033754;28;20184;-77
2022/08/27 07:47:45;;;;;;;12.20;11.07;;;25.00;59.80;;;;;;5033155;28;20203;-76
2022/08/27 07:50:12;;;;;;;11.50;10.50;;;25.00;59.80;;;;;;5015692;28;20314;-77
2022/08/27 07:52:42;;;;;;;12.88;10.75;;;25.00;59.80;;;;;;5017128;28;20196;-77
2022/08/27 07:55:10;;;;;;;12.52;11.30;;;25.00;60.00;;;;;;5016428;28;20200;-76
2022/08/27 07:57:37;;;;;;;10.55;9.55;;;25.00;60.00;;;;;;5016178;28;20647;-76
2022/08/27 08:00:06;;;;;;;10.93;10.05;;;24.90;59.70;;;;;;5016414;28;20219;-77
2022/08/27 08:02:43;;;;;;;11.30;10.25;;;25.00;59.80;;;;;;5034429;28;20179;-77
2022/08/27 08:05:11;;;;;;;11.63;10.40;;;24.90;59.80;;;;;;5016431;28;20607;-77
2022/08/27 08:07:38;;;;;;;12.02;11.00;;;24.90;59.90;;;;;;5016320;28;20196;-77
2022/08/27 08:10:06;;;;;;;11.57;10.48;;;24.90;59.80;;;;;;5016230;28;20219;-77
2022/08/27 08:12:35;;;;;;;11.77;10.68;;;24.90;59.90;;;;;;5032846;28;20204;-77
2022/08/27 08:15:01;;;;;;;19.05;10.65;;;24.90;59.90;;;;;;5016163;28;20210;-77
2022/08/27 08:17:28;;;;;;;10.45;9.48;;;24.90;59.90;;;;;;5016239;28;20218;-77
2022/08/27 08:19:57;;;;;;;11.48;10.13;;;24.90;59.90;;;;;;5016112;28;20206;-76
2022/08/27 08:22:24;;;;;;;10.85;9.85;;;24.90;59.90;;;;;;5016340;28;20207;-76
2022/08/27 08:24:52;;;;;;;10.65;9.43;;;24.90;59.90;;;;;;5032781;28;20581;-76
2022/08/27 08:27:19;;;;;;;10.65;9.75;;;24.90;59.90;;;;;;5035059;28;20274;-77
2022/08/27 08:29:47;;;;;;;10.48;9.50;;;24.90;59.90;;;;;;5034941;28;20242;-77
2022/08/27 08:32:14;;;;;;;10.05;9.18;;;24.90;60.00;;;;;;5033037;28;20192;-77
2022/08/27 08:34:41;;;;;;;10.63;9.63;;;24.90;59.90;;;;;;5032881;28;20202;-76
2022/08/27 08:37:10;;;;;;;10.73;9.93;;;24.90;59.90;;;;;;5033015;28;20212;-76
2022/08/27 08:39:37;;;;;;;10.98;10.07;;;24.90;59.90;;;;;;5032412;28;20207;-76
2022/08/27 08:42:05;;;;;;;11.30;10.25;;;24.90;59.90;;;;;;5032522;28;20203;-76
2022/08/27 08:44:34;;;;;;;10.35;9.55;;;24.90;59.90;;;;;;5016643;28;20211;-77
2022/08/27 08:47:07;;;;;;;10.18;9.27;;;24.90;59.90;;;;;;5015856;28;20224;-76
2022/08/27 08:49:41;;;;;;;11.65;10.70;;;24.90;59.90;;;;;;5016123;28;20203;-76
2022/08/27 08:52:30;;;;;;;10.98;10.00;;;24.90;59.90;;;;;;5015864;28;20213;-77
2022/08/27 08:54:59;;;;;;;10.80;9.85;;;24.90;60.00;;;;;;5032581;28;20196;-76
2022/08/27 08:57:28;;;;;;;12.10;10.95;;;24.90;60.00;;;;;;5016164;28;20254;-76
2022/08/27 08:59:56;;;;;;;10.75;9.75;;;24.90;60.00;;;;;;4999538;28;20287;-77
2022/08/27 09:02:23;;;;;;;12.48;11.18;;;24.90;60.20;;;;;;5035162;28;20601;-76
2022/08/27 09:04:51;;;;;;;13.43;12.13;;;24.80;60.30;;;;;;5036029;28;20565;-77
2022/08/27 09:07:21;;;;;;;12.73;11.52;;;24.90;60.70;;;;;;5035982;28;20196;-77
2022/08/27 09:09:50;;;;;;;11.95;10.75;;;24.90;60.40;;;;;;5019516;28;20254;-77
2022/08/27 09:12:21;;;;;;;12.55;11.25;;;25.00;60.20;;;;;;5020212;28;20231;-77
2022/08/27 09:14:50;;;;;;;12.95;11.75;;;25.00;60.30;;;;;;5039954;28;20268;-77
2022/08/27 09:17:17;;;;;;;13.27;12.07;;;25.10;60.20;;;;;;5036026;28;20226;-77
2022/08/27 09:19:45;;;;;;;13.80;12.65;;;25.00;60.50;;;;;;5036273;28;20639;-77
2022/08/27 09:22:17;;;;;;;15.68;13.23;;;25.10;60.50;;;;;;5019849;28;20200;-77
2022/08/27 09:24:51;;;;;;;15.73;14.18;;;25.10;62.90;;;;;;5020461;28;20239;-77
2022/08/27 09:27:18;;;;;;;17.65;16.05;;;25.10;62.30;;;;;;5036029;28;20565;-77
2022/08/27 09:29:50;;;;;;;16.33;14.77;;;25.00;63.20;;;;;;5020879;28;20200;-77
2022/08/27 09:32:21;;;;;;;15.80;14.27;;;25.00;63.90;;;;;;5019947;28;20294;-77
2022/08/27 09:34:47;;;;;;;18.45;15.77;;;25.00;63.90;;;;;;5020265;28;20211;-77
2022/08/27 09:37:15;;;;;;;16.40;14.85;;;24.90;64.70;;;;;;5019010;28;20585;-77
2022/08/27 09:39:49;;;;;;;14.63;13.38;;;24.90;65.00;;;;;;5035261;28;20206;-77
2022/08/27 09:42:31;;;;;;;14.88;13.40;;;24.90;65.00;;;;;;5018780;28;20196;-77
2022/08/27 09:44:58;;;;;;;17.20;15.60;;;24.90;65.30;;;;;;5019066;28;20200;-76
2022/08/27 09:47:25;;;;;;;14.90;13.00;;;24.90;66.60;;;;;;5035306;28;20196;-76
2022/08/27 09:50:04;;;;;;;17.52;15.80;;;24.90;66.50;;;;;;5018380;28;20576;-76
2022/08/27 09:52:32;;;;;;;56.15;44.53;;;25.00;65.90;;;;;;5018781;28;20203;-76
2022/08/27 09:55:00;;;;;;;80.35;64.93;;;24.90;66.80;;;;;;5018813;28;20562;-76
2022/08/27 09:57:32;;;;;;;62.38;53.00;;;24.90;67.00;;;;;;5019441;28;20212;-77
2022/08/27 10:00:00;;;;;;;58.53;47.58;;;24.90;67.20;;;;;;5034869;28;20216;-77
2022/08/27 10:02:27;;;;;;;33.30;29.75;;;24.90;67.50;;;;;;5018764;28;20242;-77
2022/08/27 10:04:57;;;;;;;32.08;27.67;;;24.90;67.40;;;;;;5035108;28;20299;-77
2022/08/27 10:07:33;;;;;;;25.00;21.70;;;24.80;67.70;;;;;;5018074;28;20247;-77
2022/08/27 10:10:06;;;;;;;19.50;17.55;;;24.80;67.60;;;;;;5018255;28;20223;-77
2022/08/27 10:12:35;;;;;;;15.45;13.98;;;24.80;67.30;;;;;;5034037;28;20290;-77
2022/08/27 10:15:04;;;;;;;13.90;12.40;;;24.70;67.30;;;;;;5034910;28;20609;-77
2022/08/27 10:17:37;;;;;;;11.45;10.25;;;24.70;67.10;;;;;;5018019;28;20262;-77
2022/08/27 10:20:08;;;;;;;10.45;9.55;;;24.70;67.60;;;;;;5018144;28;20286;-77
2022/08/27 10:22:43;;;;;;;10.27;9.25;;;24.70;67.40;;;;;;5018510;28;20192;-76
2022/08/27 10:25:22;;;;;;;8.48;7.78;;;24.70;68.00;;;;;;5034871;28;20658;-76
2022/08/27 10:27:54;;;;;;;9.18;8.38;;;24.70;67.70;;;;;;5036083;28;20168;-76
2022/08/27 10:30:23;;;;;;;9.00;8.20;;;24.70;68.00;;;;;;5018109;28;20268;-76
2022/08/27 10:32:59;;;;;;;8.55;7.85;;;24.70;67.90;;;;;;5034949;28;20246;-76
2022/08/27 10:35:28;;;;;;;8.82;8.02;;;24.70;68.30;;;;;;5034285;28;20200;-76
2022/08/27 10:38:03;;;;;;;8.57;7.78;;;24.70;68.90;;;;;;5018419;28;20227;-76
2022/08/27 10:40:34;;;;;;;8.80;7.93;;;24.60;68.80;;;;;;5034936;28;20237;-76
2022/08/27 10:43:07;;;;;;;8.20;7.45;;;24.60;69.30;;;;;;5034229;28;20566;-76
2022/08/27 10:45:41;;;;;;;9.52;8.73;;;24.70;69.50;;;;;;5017628;28;20196;-76
2022/08/27 10:48:13;;;;;;;9.93;8.95;;;24.60;69.20;;;;;;5017900;28;20202;-76
2022/08/27 10:50:42;;;;;;;8.95;8.20;;;24.60;69.30;;;;;;5017472;28;20286;-76
2022/08/27 10:53:12;;;;;;;9.05;8.27;;;24.50;69.50;;;;;;5033985;28;20291;-76
2022/08/27 10:55:41;;;;;;;9.77;8.98;;;24.50;69.40;;;;;;5035107;28;20246;-76
2022/08/27 10:58:25;;;;;;;9.93;9.13;;;24.50;69.70;;;;;;5035092;28;20270;-76
2022/08/27 11:00:56;;;;;;;10.18;9.20;;;24.40;70.40;;;;;;5017331;28;20227;-76
2022/08/27 11:03:27;;;;;;;10.35;9.35;;;24.40;69.30;;;;;;5018168;28;20262;-76
2022/08/27 11:05:54;;;;;;;9.68;8.80;;;24.40;69.70;;;;;;5017402;28;20666;-76
2022/08/27 11:08:23;;;;;;;10.38;9.40;;;24.40;69.90;;;;;;5001290;28;20224;-76
2022/08/27 11:10:53;;;;;;;10.38;9.48;;;24.40;70.50;;;;;;5033776;28;20567;-76
2022/08/27 11:13:24;;;;;;;11.77;10.68;;;24.40;70.30;;;;;;5017544;28;20206;-76
2022/08/27 11:15:52;;;;;;;12.38;11.10;;;24.40;70.70;;;;;;5033740;28;20594;-76
2022/08/27 11:18:23;;;;;;;12.30;11.20;;;24.30;71.30;;;;;;5018324;28;20243;-76
2022/08/27 11:20:53;;;;;;;12.30;11.20;;;24.30;71.10;;;;;;5017108;28;20220;-76
2022/08/27 11:23:23;;;;;;;12.38;11.10;;;24.30;71.30;;;;;;5018249;28;20720;-76
2022/08/27 11:25:52;;;;;;;12.93;11.73;;;24.30;71.60;;;;;;5018404;28;20218;-76
2022/08/27 11:28:21;;;;;;;12.77;11.48;;;24.30;71.10;;;;;;5035644;28;20184;-76
2022/08/27 11:30:54;;;;;;;12.20;11.13;;;24.30;70.80;;;;;;5034967;28;20262;-76
2022/08/27 11:33:25;;;;;;;11.48;10.48;;;24.30;70.40;;;;;;5052041;28;20280;-77
2022/08/27 11:36:39;;;;;;;12.57;11.40;;;24.30;70.10;;;;;;5039906;28;20231;-78
2022/08/27 11:39:12;;;;;;;12.52;11.32;;;24.40;70.30;;;;;;5024772;28;20228;-77
2022/08/27 11:42:05;;;;;;;12.93;11.82;;;24.40;69.70;;;;;;5016960;28;20637;-76
2022/08/27 11:44:32;;;;;;;12.52;11.15;;;24.40;70.40;;;;;;5016854;28;20192;-77
2022/08/27 11:47:09;;;;;;;12.73;11.52;;;24.50;70.30;;;;;;5016534;28;20204;-77
2022/08/27 11:49:43;;;;;;;12.98;11.77;;;24.40;69.90;;;;;;5034136;28;20206;-77
2022/08/27 11:52:10;;;;;;;13.30;12.00;;;24.40;69.70;;;;;;5034894;28;20206;-77
2022/08/27 11:54:44;;;;;;;13.27;12.00;;;24.40;69.70;;;;;;5034820;28;20705;-77
2022/08/27 11:57:16;;;;;;;13.18;11.98;;;24.50;69.80;;;;;;5016787;28;20671;-77
2022/08/27 11:59:44;;;;;;;14.65;13.15;;;24.50;69.70;;;;;;5033247;28;20196;-76
2022/08/27 12:02:16;;;;;;;13.80;12.40;;;24.50;69.50;;;;;;5016285;28;20200;-77
2022/08/27 12:04:43;;;;;;;14.00;12.57;;;24.40;69.10;;;;;;5001139;28;20602;-77
2022/08/27 12:07:26;;;;;;;13.80;12.45;;;24.40;69.10;;;;;;5032845;28;20196;-77
2022/08/27 12:10:25;;;;;;;13.93;12.63;;;24.40;69.20;;;;;;5016962;28;20196;-76
2022/08/27 12:13:03;;;;;;;15.10;13.60;;;24.40;69.40;;;;;;5009798;28;20196;-76
2022/08/27 12:15:40;;;;;;;14.55;13.25;;;24.40;69.70;;;;;;5016466;28;20730;-76
2022/08/27 12:18:11;;;;;;;14.57;13.20;;;24.50;70.50;;;;;;5015928;28;20223;-76
2022/08/27 12:20:43;;;;;;;16.00;14.38;;;24.50;69.90;;;;;;5016277;28;20220;-77
2022/08/27 12:26:03;;;;;;;14.90;13.50;;;24.50;70.60;;;;;;5033567;28;20560;-77
2022/08/27 12:28:31;;;;;;;16.30;14.75;;;24.50;70.30;;;;;;5032826;28;20322;-76
2022/08/27 12:30:58;;;;;;;15.77;13.35;;;24.50;70.10;;;;;;5016099;28;20230;-77
2022/08/27 12:33:29;;;;;;;15.57;14.13;;;24.50;69.40;;;;;;5033952;28;20203;-77
2022/08/27 12:35:57;;;;;;;15.15;13.75;;;24.60;70.20;;;;;;5016553;28;20202;-76
2022/08/27 12:38:37;;;;;;;15.38;13.98;;;24.60;69.80;;;;;;5020346;28;20218;-76
2022/08/27 12:41:07;;;;;;;11.80;10.70;;;24.70;70.30;;;;;;5038255;28;20694;-76
2022/08/27 12:43:37;;;;;;;11.68;10.48;;;24.70;69.40;;;;;;5022581;28;20200;-76
2022/08/27 12:46:06;;;;;;;13.05;11.70;;;24.80;67.90;;;;;;5023214;28;20196;-76
2022/08/27 12:48:38;;;;;;;11.48;10.48;;;24.90;67.20;;;;;;5039358;28;20557;-76
2022/08/27 12:51:08;;;;;;;11.55;10.43;;;24.90;66.70;;;;;;5037877;28;20273;-76
2022/08/27 12:53:42;;;;;;;11.50;10.40;;;25.00;66.10;;;;;;5020420;28;20638;-76
2022/08/27 12:56:24;;;;;;;11.20;10.20;;;25.00;65.60;;;;;;5036836;28;20658;-76